sensor_id;sensor_type;location;lat;lon;timestamp;P1;durP1;ratioP1;P2;durP2;ratioP2
76193;SDS011;64963;52.212;7.482;2022-12-18T00:01:57;67.03;;;24.13;;
76193;SDS011;64963;52.212;7.482;2022-12-18T00:04:23;68.65;;;25.83;;
76193;SDS011;64963;52.212;7.482;2022-12-18T00:06:49;65.93;;;25.40;;
76193;SDS011;64963;52.212;7.482;2022-12-18T00:09:14;57.83;;;22.67;;
76193;SDS011;64963;52.212;7.482;2022-12-18T00:11:39;61.90;;;22.40;;
76193;SDS011;64963;52.212;7.482;2022-12-18T00:14:04;71.43;;;24.77;;
76193;SDS011;64963;52.212;7.482;2022-12-18T00:16:30;70.07;;;22.67;;
76193;SDS011;64963;52.212;7.482;2022-12-18T00:18:56;47.80;;;18.13;;
76193;SDS011;64963;52.212;7.482;2022-12-18T00:21:21;64.60;;;22.43;;
76193;SDS011;64963;52.212;7.482;2022-12-18T00:23:47;55.72;;;20.33;;
76193;SDS011;64963;52.212;7.482;2022-12-18T00:26:17;67.20;;;22.77;;
76193;SDS011;64963;52.212;7.482;2022-12-18T00:28:42;72.03;;;25.02;;
76193;SDS011;64963;52.212;7.482;2022-12-18T00:31:09;69.45;;;24.67;;
76193;SDS011;64963;52.212;7.482;2022-12-18T00:33:35;67.97;;;24.13;;
76193;SDS011;64963;52.212;7.482;2022-12-18T00:36:04;72.40;;;25.92;;
76193;SDS011;64963;52.212;7.482;2022-12-18T00:38:29;66.50;;;23.55;;
76193;SDS011;64963;52.212;7.482;2022-12-18T00:40:54;75.73;;;27.03;;
76193;SDS011;64963;52.212;7.482;2022-12-18T00:43:20;65.87;;;24.53;;
76193;SDS011;64963;52.212;7.482;2022-12-18T00:45:45;69.17;;;25.13;;
76193;SDS011;64963;52.212;7.482;2022-12-18T00:48:10;60.23;;;22.47;;
76193;SDS011;64963;52.212;7.482;2022-12-18T00:50:35;68.63;;;23.67;;
76193;SDS011;64963;52.212;7.482;2022-12-18T00:53:00;58.33;;;24.67;;
76193;SDS011;64963;52.212;7.482;2022-12-18T00:55:25;66.37;;;23.63;;
76193;SDS011;64963;52.212;7.482;2022-12-18T00:57:51;65.60;;;25.30;;
76193;SDS011;64963;52.212;7.482;2022-12-18T01:00:16;61.47;;;20.93;;
76193;SDS011;64963;52.212;7.482;2022-12-18T01:02:42;52.23;;;21.53;;
76193;SDS011;64963;52.212;7.482;2022-12-18T01:05:07;67.20;;;23.63;;
76193;SDS011;64963;52.212;7.482;2022-12-18T01:07:33;71.78;;;26.48;;
76193;SDS011;64963;52.212;7.482;2022-12-18T01:09:58;65.87;;;25.60;;
76193;SDS011;64963;52.212;7.482;2022-12-18T01:12:23;73.87;;;25.00;;
76193;SDS011;64963;52.212;7.482;2022-12-18T01:14:48;66.03;;;24.57;;
76193;SDS011;64963;52.212;7.482;2022-12-18T01:17:13;66.43;;;24.17;;
76193;SDS011;64963;52.212;7.482;2022-12-18T01:19:38;77.03;;;25.77;;
76193;SDS011;64963;52.212;7.482;2022-12-18T01:22:04;60.73;;;21.87;;
76193;SDS011;64963;52.212;7.482;2022-12-18T01:24:29;79.43;;;28.93;;
76193;SDS011;64963;52.212;7.482;2022-12-18T01:26:54;71.70;;;24.05;;
76193;SDS011;64963;52.212;7.482;2022-12-18T01:29:19;79.70;;;26.40;;
76193;SDS011;64963;52.212;7.482;2022-12-18T01:31:44;65.63;;;23.70;;
76193;SDS011;64963;52.212;7.482;2022-12-18T01:34:09;58.33;;;21.87;;
76193;SDS011;64963;52.212;7.482;2022-12-18T01:36:36;72.07;;;26.17;;
76193;SDS011;64963;52.212;7.482;2022-12-18T01:39:06;67.50;;;23.60;;
76193;SDS011;64963;52.212;7.482;2022-12-18T01:41:32;70.63;;;24.73;;
76193;SDS011;64963;52.212;7.482;2022-12-18T01:43:57;84.03;;;26.27;;
76193;SDS011;64963;52.212;7.482;2022-12-18T01:46:26;69.53;;;24.87;;
76193;SDS011;64963;52.212;7.482;2022-12-18T01:48:55;82.75;;;27.00;;
76193;SDS011;64963;52.212;7.482;2022-12-18T01:51:21;72.63;;;24.83;;
76193;SDS011;64963;52.212;7.482;2022-12-18T01:53:46;72.30;;;27.10;;
76193;SDS011;64963;52.212;7.482;2022-12-18T01:56:13;71.33;;;25.40;;
76193;SDS011;64963;52.212;7.482;2022-12-18T01:58:47;75.00;;;24.52;;
76193;SDS011;64963;52.212;7.482;2022-12-18T02:01:13;71.95;;;24.52;;
76193;SDS011;64963;52.212;7.482;2022-12-18T02:03:40;78.37;;;24.77;;
76193;SDS011;64963;52.212;7.482;2022-12-18T02:06:13;68.27;;;22.67;;
76193;SDS011;64963;52.212;7.482;2022-12-18T02:11:23;73.15;;;24.92;;
76193;SDS011;64963;52.212;7.482;2022-12-18T02:16:39;60.60;;;22.90;;
76193;SDS011;64963;52.212;7.482;2022-12-18T02:19:25;65.03;;;22.50;;
76193;SDS011;64963;52.212;7.482;2022-12-18T02:21:57;66.53;;;22.73;;
76193;SDS011;64963;52.212;7.482;2022-12-18T02:24:43;65.60;;;23.83;;
76193;SDS011;64963;52.212;7.482;2022-12-18T02:27:11;67.95;;;24.40;;
76193;SDS011;64963;52.212;7.482;2022-12-18T02:29:52;66.60;;;22.00;;
76193;SDS011;64963;52.212;7.482;2022-12-18T02:32:20;70.85;;;25.50;;
76193;SDS011;64963;52.212;7.482;2022-12-18T02:34:46;64.97;;;21.80;;
76193;SDS011;64963;52.212;7.482;2022-12-18T02:37:12;64.53;;;23.20;;
76193;SDS011;64963;52.212;7.482;2022-12-18T02:39:39;62.95;;;24.25;;
76193;SDS011;64963;52.212;7.482;2022-12-18T02:42:05;67.25;;;26.45;;
76193;SDS011;64963;52.212;7.482;2022-12-18T02:44:31;67.43;;;25.63;;
76193;SDS011;64963;52.212;7.482;2022-12-18T02:46:56;62.17;;;25.13;;
76193;SDS011;64963;52.212;7.482;2022-12-18T02:49:26;67.60;;;26.10;;
76193;SDS011;64963;52.212;7.482;2022-12-18T02:54:45;66.95;;;23.05;;
76193;SDS011;64963;52.212;7.482;2022-12-18T02:57:23;59.53;;;23.57;;
76193;SDS011;64963;52.212;7.482;2022-12-18T03:00:11;66.30;;;25.63;;
76193;SDS011;64963;52.212;7.482;2022-12-18T03:02:37;71.25;;;25.83;;
76193;SDS011;64963;52.212;7.482;2022-12-18T03:05:06;64.85;;;25.17;;
76193;SDS011;64963;52.212;7.482;2022-12-18T03:08:15;62.05;;;23.83;;
76193;SDS011;64963;52.212;7.482;2022-12-18T03:10:23;56.73;;;23.33;;
76193;SDS011;64963;52.212;7.482;2022-12-18T03:12:51;48.15;;;18.58;;
76193;SDS011;64963;52.212;7.482;2022-12-18T03:15:19;65.65;;;24.65;;
76193;SDS011;64963;52.212;7.482;2022-12-18T03:17:48;59.80;;;23.35;;
76193;SDS011;64963;52.212;7.482;2022-12-18T03:20:17;62.70;;;24.48;;
76193;SDS011;64963;52.212;7.482;2022-12-18T03:22:44;71.03;;;25.87;;
76193;SDS011;64963;52.212;7.482;2022-12-18T03:25:13;61.90;;;23.67;;
76193;SDS011;64963;52.212;7.482;2022-12-18T03:27:40;67.70;;;26.30;;
76193;SDS011;64963;52.212;7.482;2022-12-18T03:30:10;66.07;;;24.75;;
76193;SDS011;64963;52.212;7.482;2022-12-18T03:32:42;59.25;;;24.48;;
76193;SDS011;64963;52.212;7.482;2022-12-18T03:35:08;55.80;;;22.50;;
76193;SDS011;64963;52.212;7.482;2022-12-18T03:37:35;59.42;;;24.02;;
76193;SDS011;64963;52.212;7.482;2022-12-18T03:40:01;60.07;;;23.83;;
76193;SDS011;64963;52.212;7.482;2022-12-18T03:42:30;63.90;;;22.75;;
76193;SDS011;64963;52.212;7.482;2022-12-18T03:45:00;57.10;;;23.13;;
76193;SDS011;64963;52.212;7.482;2022-12-18T03:47:27;54.75;;;22.58;;
76193;SDS011;64963;52.212;7.482;2022-12-18T03:55:22;52.10;;;21.92;;
76193;SDS011;64963;52.212;7.482;2022-12-18T03:57:48;60.23;;;24.97;;
76193;SDS011;64963;52.212;7.482;2022-12-18T04:00:14;66.10;;;24.43;;
76193;SDS011;64963;52.212;7.482;2022-12-18T04:02:44;53.65;;;21.08;;
76193;SDS011;64963;52.212;7.482;2022-12-18T04:05:11;56.42;;;21.92;;
76193;SDS011;64963;52.212;7.482;2022-12-18T04:07:37;45.15;;;19.20;;
76193;SDS011;64963;52.212;7.482;2022-12-18T04:10:03;68.47;;;25.70;;
76193;SDS011;64963;52.212;7.482;2022-12-18T04:12:30;56.83;;;23.33;;
76193;SDS011;64963;52.212;7.482;2022-12-18T04:14:55;70.53;;;23.73;;
76193;SDS011;64963;52.212;7.482;2022-12-18T04:17:20;66.63;;;25.63;;
76193;SDS011;64963;52.212;7.482;2022-12-18T04:19:46;51.47;;;22.07;;
76193;SDS011;64963;52.212;7.482;2022-12-18T04:22:11;63.50;;;24.83;;
76193;SDS011;64963;52.212;7.482;2022-12-18T04:24:36;62.30;;;23.87;;
76193;SDS011;64963;52.212;7.482;2022-12-18T04:27:01;61.57;;;23.57;;
76193;SDS011;64963;52.212;7.482;2022-12-18T04:29:26;54.13;;;21.47;;
76193;SDS011;64963;52.212;7.482;2022-12-18T04:31:52;56.23;;;22.97;;
76193;SDS011;64963;52.212;7.482;2022-12-18T04:34:17;58.17;;;23.90;;
76193;SDS011;64963;52.212;7.482;2022-12-18T04:36:42;56.87;;;24.60;;
76193;SDS011;64963;52.212;7.482;2022-12-18T04:39:07;59.43;;;25.07;;
76193;SDS011;64963;52.212;7.482;2022-12-18T04:41:32;60.20;;;24.00;;
76193;SDS011;64963;52.212;7.482;2022-12-18T04:43:57;57.83;;;21.93;;
76193;SDS011;64963;52.212;7.482;2022-12-18T04:46:23;54.17;;;22.80;;
76193;SDS011;64963;52.212;7.482;2022-12-18T04:48:48;48.60;;;21.50;;
76193;SDS011;64963;52.212;7.482;2022-12-18T04:51:13;53.40;;;22.70;;
76193;SDS011;64963;52.212;7.482;2022-12-18T04:53:38;56.77;;;22.30;;
76193;SDS011;64963;52.212;7.482;2022-12-18T04:58:29;46.67;;;20.00;;
76193;SDS011;64963;52.212;7.482;2022-12-18T05:00:54;54.20;;;21.70;;
76193;SDS011;64963;52.212;7.482;2022-12-18T05:03:19;54.22;;;22.27;;
76193;SDS011;64963;52.212;7.482;2022-12-18T05:05:44;49.90;;;19.97;;
76193;SDS011;64963;52.212;7.482;2022-12-18T05:08:09;46.85;;;20.75;;
76193;SDS011;64963;52.212;7.482;2022-12-18T05:10:34;50.07;;;19.23;;
76193;SDS011;64963;52.212;7.482;2022-12-18T05:12:59;48.60;;;20.17;;
76193;SDS011;64963;52.212;7.482;2022-12-18T05:15:29;53.70;;;21.57;;
76193;SDS011;64963;52.212;7.482;2022-12-18T05:17:54;48.72;;;19.63;;
76193;SDS011;64963;52.212;7.482;2022-12-18T05:20:19;48.77;;;21.47;;
76193;SDS011;64963;52.212;7.482;2022-12-18T05:22:45;47.47;;;21.63;;
76193;SDS011;64963;52.212;7.482;2022-12-18T05:25:10;37.47;;;16.13;;
76193;SDS011;64963;52.212;7.482;2022-12-18T05:27:35;33.80;;;15.17;;
76193;SDS011;64963;52.212;7.482;2022-12-18T05:30:00;44.53;;;19.00;;
76193;SDS011;64963;52.212;7.482;2022-12-18T05:32:25;46.90;;;19.47;;
76193;SDS011;64963;52.212;7.482;2022-12-18T05:34:51;48.28;;;20.85;;
76193;SDS011;64963;52.212;7.482;2022-12-18T05:37:17;49.23;;;20.00;;
76193;SDS011;64963;52.212;7.482;2022-12-18T05:39:42;43.27;;;18.23;;
76193;SDS011;64963;52.212;7.482;2022-12-18T05:42:07;45.77;;;19.50;;
76193;SDS011;64963;52.212;7.482;2022-12-18T05:44:32;47.20;;;18.77;;
76193;SDS011;64963;52.212;7.482;2022-12-18T05:46:57;43.50;;;17.45;;
76193;SDS011;64963;52.212;7.482;2022-12-18T05:49:23;46.93;;;19.77;;
76193;SDS011;64963;52.212;7.482;2022-12-18T05:51:48;47.83;;;18.67;;
76193;SDS011;64963;52.212;7.482;2022-12-18T05:54:13;42.63;;;16.77;;
76193;SDS011;64963;52.212;7.482;2022-12-18T05:56:38;35.60;;;14.63;;
76193;SDS011;64963;52.212;7.482;2022-12-18T05:59:03;33.07;;;14.63;;
76193;SDS011;64963;52.212;7.482;2022-12-18T06:01:28;39.30;;;17.07;;
76193;SDS011;64963;52.212;7.482;2022-12-18T06:03:54;40.10;;;18.20;;
76193;SDS011;64963;52.212;7.482;2022-12-18T06:06:20;40.15;;;17.42;;
76193;SDS011;64963;52.212;7.482;2022-12-18T06:08:46;39.72;;;17.60;;
76193;SDS011;64963;52.212;7.482;2022-12-18T06:11:11;36.43;;;16.60;;
76193;SDS011;64963;52.212;7.482;2022-12-18T06:13:37;37.07;;;17.43;;
76193;SDS011;64963;52.212;7.482;2022-12-18T06:16:05;36.13;;;16.37;;
76193;SDS011;64963;52.212;7.482;2022-12-18T06:18:30;38.85;;;16.55;;
76193;SDS011;64963;52.212;7.482;2022-12-18T06:20:56;37.53;;;16.77;;
76193;SDS011;64963;52.212;7.482;2022-12-18T06:23:21;38.33;;;16.02;;
76193;SDS011;64963;52.212;7.482;2022-12-18T06:25:46;33.70;;;15.87;;
76193;SDS011;64963;52.212;7.482;2022-12-18T06:28:11;33.33;;;15.60;;
76193;SDS011;64963;52.212;7.482;2022-12-18T06:30:36;38.30;;;15.73;;
76193;SDS011;64963;52.212;7.482;2022-12-18T06:33:02;35.80;;;15.07;;
76193;SDS011;64963;52.212;7.482;2022-12-18T06:35:27;33.73;;;13.90;;
76193;SDS011;64963;52.212;7.482;2022-12-18T06:37:52;37.43;;;15.37;;
76193;SDS011;64963;52.212;7.482;2022-12-18T06:40:17;36.57;;;15.77;;
76193;SDS011;64963;52.212;7.482;2022-12-18T06:42:42;33.70;;;15.60;;
76193;SDS011;64963;52.212;7.482;2022-12-18T06:45:07;41.93;;;15.30;;
76193;SDS011;64963;52.212;7.482;2022-12-18T06:47:33;36.30;;;15.23;;
76193;SDS011;64963;52.212;7.482;2022-12-18T06:49:58;30.47;;;13.60;;
76193;SDS011;64963;52.212;7.482;2022-12-18T06:52:23;43.00;;;18.53;;
76193;SDS011;64963;52.212;7.482;2022-12-18T06:54:48;32.50;;;15.17;;
76193;SDS011;64963;52.212;7.482;2022-12-18T06:57:13;45.73;;;17.50;;
76193;SDS011;64963;52.212;7.482;2022-12-18T06:59:38;27.98;;;13.35;;
76193;SDS011;64963;52.212;7.482;2022-12-18T07:02:04;40.63;;;16.07;;
76193;SDS011;64963;52.212;7.482;2022-12-18T07:04:29;32.60;;;14.80;;
76193;SDS011;64963;52.212;7.482;2022-12-18T07:06:54;30.43;;;14.43;;
76193;SDS011;64963;52.212;7.482;2022-12-18T07:09:19;29.93;;;13.27;;
76193;SDS011;64963;52.212;7.482;2022-12-18T07:11:45;34.93;;;13.90;;
76193;SDS011;64963;52.212;7.482;2022-12-18T07:14:10;27.73;;;11.65;;
76193;SDS011;64963;52.212;7.482;2022-12-18T07:16:35;22.17;;;9.83;;
76193;SDS011;64963;52.212;7.482;2022-12-18T07:19:00;28.57;;;13.07;;
76193;SDS011;64963;52.212;7.482;2022-12-18T07:21:25;21.77;;;9.77;;
76193;SDS011;64963;52.212;7.482;2022-12-18T07:23:50;28.73;;;13.20;;
76193;SDS011;64963;52.212;7.482;2022-12-18T07:26:17;23.17;;;11.53;;
76193;SDS011;64963;52.212;7.482;2022-12-18T07:28:42;23.38;;;10.18;;
76193;SDS011;64963;52.212;7.482;2022-12-18T07:31:11;23.97;;;10.17;;
76193;SDS011;64963;52.212;7.482;2022-12-18T07:33:37;19.15;;;8.82;;
76193;SDS011;64963;52.212;7.482;2022-12-18T07:36:03;22.23;;;8.70;;
76193;SDS011;64963;52.212;7.482;2022-12-18T07:38:28;19.23;;;8.48;;
76193;SDS011;64963;52.212;7.482;2022-12-18T07:40:53;22.10;;;9.40;;
76193;SDS011;64963;52.212;7.482;2022-12-18T07:43:18;15.67;;;6.77;;
76193;SDS011;64963;52.212;7.482;2022-12-18T07:45:43;17.63;;;6.87;;
76193;SDS011;64963;52.212;7.482;2022-12-18T07:48:09;19.63;;;9.17;;
76193;SDS011;64963;52.212;7.482;2022-12-18T07:50:34;20.07;;;7.77;;
76193;SDS011;64963;52.212;7.482;2022-12-18T07:52:59;19.20;;;8.37;;
76193;SDS011;64963;52.212;7.482;2022-12-18T07:55:24;18.60;;;8.20;;
76193;SDS011;64963;52.212;7.482;2022-12-18T07:57:49;16.80;;;6.63;;
76193;SDS011;64963;52.212;7.482;2022-12-18T08:00:15;15.70;;;6.87;;
76193;SDS011;64963;52.212;7.482;2022-12-18T08:02:40;19.33;;;8.67;;
76193;SDS011;64963;52.212;7.482;2022-12-18T08:05:05;19.67;;;9.00;;
76193;SDS011;64963;52.212;7.482;2022-12-18T08:07:30;18.87;;;9.23;;
76193;SDS011;64963;52.212;7.482;2022-12-18T08:09:56;16.83;;;8.40;;
76193;SDS011;64963;52.212;7.482;2022-12-18T08:12:21;18.40;;;7.95;;
76193;SDS011;64963;52.212;7.482;2022-12-18T08:14:46;15.60;;;7.90;;
76193;SDS011;64963;52.212;7.482;2022-12-18T08:17:11;16.83;;;7.97;;
76193;SDS011;64963;52.212;7.482;2022-12-18T08:19:36;13.30;;;6.50;;
76193;SDS011;64963;52.212;7.482;2022-12-18T08:22:01;11.87;;;6.63;;
76193;SDS011;64963;52.212;7.482;2022-12-18T08:24:27;16.10;;;6.10;;
76193;SDS011;64963;52.212;7.482;2022-12-18T08:26:52;14.13;;;7.20;;
76193;SDS011;64963;52.212;7.482;2022-12-18T08:29:17;11.20;;;5.23;;
76193;SDS011;64963;52.212;7.482;2022-12-18T08:31:42;9.37;;;5.27;;
76193;SDS011;64963;52.212;7.482;2022-12-18T08:34:07;15.67;;;6.43;;
76193;SDS011;64963;52.212;7.482;2022-12-18T08:36:33;12.55;;;5.95;;
76193;SDS011;64963;52.212;7.482;2022-12-18T08:38:58;13.97;;;6.53;;
76193;SDS011;64963;52.212;7.482;2022-12-18T08:41:23;14.20;;;6.90;;
76193;SDS011;64963;52.212;7.482;2022-12-18T08:43:48;14.50;;;6.87;;
76193;SDS011;64963;52.212;7.482;2022-12-18T08:46:20;10.87;;;6.13;;
76193;SDS011;64963;52.212;7.482;2022-12-18T08:48:46;13.35;;;6.13;;
76193;SDS011;64963;52.212;7.482;2022-12-18T08:51:11;10.77;;;4.53;;
76193;SDS011;64963;52.212;7.482;2022-12-18T08:53:37;13.00;;;6.30;;
76193;SDS011;64963;52.212;7.482;2022-12-18T08:56:02;11.07;;;6.03;;
76193;SDS011;64963;52.212;7.482;2022-12-18T08:58:28;14.68;;;6.78;;
76193;SDS011;64963;52.212;7.482;2022-12-18T09:00:53;9.50;;;4.67;;
76193;SDS011;64963;52.212;7.482;2022-12-18T09:03:18;12.77;;;6.10;;
76193;SDS011;64963;52.212;7.482;2022-12-18T09:05:47;19.60;;;6.97;;
76193;SDS011;64963;52.212;7.482;2022-12-18T09:08:12;12.25;;;5.15;;
76193;SDS011;64963;52.212;7.482;2022-12-18T09:10:44;13.87;;;7.07;;
76193;SDS011;64963;52.212;7.482;2022-12-18T09:13:10;13.23;;;6.00;;
76193;SDS011;64963;52.212;7.482;2022-12-18T09:15:39;13.25;;;7.10;;
76193;SDS011;64963;52.212;7.482;2022-12-18T09:18:04;11.27;;;6.13;;
76193;SDS011;64963;52.212;7.482;2022-12-18T09:20:30;10.87;;;5.33;;
76193;SDS011;64963;52.212;7.482;2022-12-18T09:22:55;9.90;;;4.75;;
76193;SDS011;64963;52.212;7.482;2022-12-18T09:25:20;12.80;;;6.57;;
76193;SDS011;64963;52.212;7.482;2022-12-18T09:27:47;12.20;;;7.45;;
76193;SDS011;64963;52.212;7.482;2022-12-18T09:30:12;11.50;;;5.77;;
76193;SDS011;64963;52.212;7.482;2022-12-18T09:32:37;12.77;;;6.97;;
76193;SDS011;64963;52.212;7.482;2022-12-18T09:35:02;13.38;;;6.50;;
76193;SDS011;64963;52.212;7.482;2022-12-18T09:37:28;14.90;;;8.73;;
76193;SDS011;64963;52.212;7.482;2022-12-18T09:39:53;13.23;;;6.87;;
76193;SDS011;64963;52.212;7.482;2022-12-18T09:42:22;13.10;;;7.70;;
76193;SDS011;64963;52.212;7.482;2022-12-18T09:44:53;13.25;;;6.25;;
76193;SDS011;64963;52.212;7.482;2022-12-18T09:49:50;17.85;;;9.70;;
76193;SDS011;64963;52.212;7.482;2022-12-18T09:52:19;13.07;;;7.57;;
76193;SDS011;64963;52.212;7.482;2022-12-18T09:54:48;14.18;;;7.07;;
76193;SDS011;64963;52.212;7.482;2022-12-18T09:57:19;15.80;;;8.45;;
76193;SDS011;64963;52.212;7.482;2022-12-18T09:59:46;13.13;;;6.75;;
76193;SDS011;64963;52.212;7.482;2022-12-18T10:02:18;11.43;;;6.70;;
76193;SDS011;64963;52.212;7.482;2022-12-18T10:04:44;13.70;;;7.27;;
76193;SDS011;64963;52.212;7.482;2022-12-18T10:07:19;14.73;;;9.25;;
76193;SDS011;64963;52.212;7.482;2022-12-18T10:09:52;12.57;;;7.05;;
76193;SDS011;64963;52.212;7.482;2022-12-18T10:12:27;13.73;;;7.18;;
76193;SDS011;64963;52.212;7.482;2022-12-18T10:17:44;13.53;;;6.93;;
76193;SDS011;64963;52.212;7.482;2022-12-18T10:20:16;11.68;;;6.03;;
76193;SDS011;64963;52.212;7.482;2022-12-18T10:22:44;12.98;;;6.97;;
76193;SDS011;64963;52.212;7.482;2022-12-18T10:27:41;12.80;;;6.22;;
76193;SDS011;64963;52.212;7.482;2022-12-18T10:30:13;12.30;;;6.80;;
76193;SDS011;64963;52.212;7.482;2022-12-18T10:32:38;12.03;;;6.53;;
76193;SDS011;64963;52.212;7.482;2022-12-18T10:35:04;13.25;;;6.13;;
76193;SDS011;64963;52.212;7.482;2022-12-18T10:37:29;13.47;;;6.50;;
76193;SDS011;64963;52.212;7.482;2022-12-18T10:40:14;10.77;;;5.67;;
76193;SDS011;64963;52.212;7.482;2022-12-18T10:42:39;12.73;;;6.15;;
76193;SDS011;64963;52.212;7.482;2022-12-18T10:45:09;19.67;;;6.73;;
76193;SDS011;64963;52.212;7.482;2022-12-18T10:47:35;12.30;;;6.30;;
76193;SDS011;64963;52.212;7.482;2022-12-18T10:50:00;12.77;;;6.07;;
76193;SDS011;64963;52.212;7.482;2022-12-18T10:52:26;13.33;;;5.83;;
76193;SDS011;64963;52.212;7.482;2022-12-18T10:54:55;11.75;;;6.35;;
76193;SDS011;64963;52.212;7.482;2022-12-18T10:59:55;13.45;;;6.47;;
76193;SDS011;64963;52.212;7.482;2022-12-18T11:02:53;13.50;;;6.60;;
76193;SDS011;64963;52.212;7.482;2022-12-18T11:05:31;12.50;;;5.78;;
76193;SDS011;64963;52.212;7.482;2022-12-18T11:07:56;12.93;;;5.90;;
76193;SDS011;64963;52.212;7.482;2022-12-18T11:10:23;12.57;;;5.93;;
76193;SDS011;64963;52.212;7.482;2022-12-18T11:12:50;13.40;;;6.45;;
76193;SDS011;64963;52.212;7.482;2022-12-18T11:15:24;13.70;;;6.93;;
76193;SDS011;64963;52.212;7.482;2022-12-18T11:17:53;13.57;;;7.05;;
76193;SDS011;64963;52.212;7.482;2022-12-18T11:20:20;14.38;;;6.90;;
76193;SDS011;64963;52.212;7.482;2022-12-18T11:22:56;15.20;;;6.63;;
76193;SDS011;64963;52.212;7.482;2022-12-18T11:25:22;12.10;;;6.10;;
76193;SDS011;64963;52.212;7.482;2022-12-18T11:27:51;15.17;;;6.27;;
76193;SDS011;64963;52.212;7.482;2022-12-18T11:32:44;13.75;;;6.22;;
76193;SDS011;64963;52.212;7.482;2022-12-18T11:37:48;13.43;;;7.00;;
76193;SDS011;64963;52.212;7.482;2022-12-18T11:40:16;14.23;;;7.40;;
76193;SDS011;64963;52.212;7.482;2022-12-18T11:42:50;16.80;;;7.32;;
76193;SDS011;64963;52.212;7.482;2022-12-18T11:46:19;15.80;;;6.78;;
76193;SDS011;64963;52.212;7.482;2022-12-18T11:48:22;14.93;;;5.88;;
76193;SDS011;64963;52.212;7.482;2022-12-18T11:53:13;19.20;;;8.43;;
76193;SDS011;64963;52.212;7.482;2022-12-18T12:03:37;15.75;;;8.02;;
76193;SDS011;64963;52.212;7.482;2022-12-18T12:08:42;13.77;;;6.03;;
76193;SDS011;64963;52.212;7.482;2022-12-18T12:16:13;15.37;;;8.40;;
76193;SDS011;64963;52.212;7.482;2022-12-18T12:22:13;16.15;;;8.95;;
76193;SDS011;64963;52.212;7.482;2022-12-18T12:27:02;28.70;;;14.00;;
76193;SDS011;64963;52.212;7.482;2022-12-18T12:34:29;17.45;;;8.15;;
76193;SDS011;64963;52.212;7.482;2022-12-18T12:39:28;17.42;;;8.80;;
76193;SDS011;64963;52.212;7.482;2022-12-18T12:41:55;12.10;;;6.13;;
76193;SDS011;64963;52.212;7.482;2022-12-18T12:44:24;14.37;;;7.50;;
76193;SDS011;64963;52.212;7.482;2022-12-18T12:46:51;14.57;;;8.07;;
76193;SDS011;64963;52.212;7.482;2022-12-18T12:49:18;13.52;;;7.47;;
76193;SDS011;64963;52.212;7.482;2022-12-18T12:51:47;13.63;;;6.43;;
76193;SDS011;64963;52.212;7.482;2022-12-18T12:54:19;14.32;;;6.70;;
76193;SDS011;64963;52.212;7.482;2022-12-18T12:56:52;13.43;;;6.65;;
76193;SDS011;64963;52.212;7.482;2022-12-18T12:59:25;13.60;;;6.88;;
76193;SDS011;64963;52.212;7.482;2022-12-18T13:04:27;11.87;;;6.57;;
76193;SDS011;64963;52.212;7.482;2022-12-18T13:09:31;14.30;;;6.70;;
76193;SDS011;64963;52.212;7.482;2022-12-18T13:11:57;16.83;;;7.30;;
76193;SDS011;64963;52.212;7.482;2022-12-18T13:14:30;15.07;;;7.03;;
76193;SDS011;64963;52.212;7.482;2022-12-18T13:17:41;9.60;;;4.60;;
76193;SDS011;64963;52.212;7.482;2022-12-18T13:19:41;13.63;;;6.32;;
76193;SDS011;64963;52.212;7.482;2022-12-18T13:22:19;8.53;;;4.60;;
76193;SDS011;64963;52.212;7.482;2022-12-18T13:24:45;13.77;;;5.88;;
76193;SDS011;64963;52.212;7.482;2022-12-18T13:29:54;12.80;;;5.82;;
76193;SDS011;64963;52.212;7.482;2022-12-18T13:32:21;9.67;;;5.03;;
76193;SDS011;64963;52.212;7.482;2022-12-18T13:34:46;12.95;;;6.72;;
76193;SDS011;64963;52.212;7.482;2022-12-18T13:39:55;11.93;;;6.83;;
76193;SDS011;64963;52.212;7.482;2022-12-18T13:44:46;13.50;;;6.70;;
76193;SDS011;64963;52.212;7.482;2022-12-18T13:49:55;11.60;;;5.67;;
76193;SDS011;64963;52.212;7.482;2022-12-18T13:52:22;12.68;;;6.10;;
76193;SDS011;64963;52.212;7.482;2022-12-18T13:54:53;11.43;;;5.68;;
76193;SDS011;64963;52.212;7.482;2022-12-18T13:57:28;11.85;;;5.97;;
76193;SDS011;64963;52.212;7.482;2022-12-18T13:59:54;12.27;;;5.93;;
76193;SDS011;64963;52.212;7.482;2022-12-18T14:02:23;14.40;;;5.87;;
76193;SDS011;64963;52.212;7.482;2022-12-18T14:04:48;11.13;;;5.00;;
76193;SDS011;64963;52.212;7.482;2022-12-18T14:07:15;11.50;;;4.93;;
76193;SDS011;64963;52.212;7.482;2022-12-18T14:09:49;13.35;;;5.60;;
76193;SDS011;64963;52.212;7.482;2022-12-18T14:12:16;12.15;;;6.93;;
76193;SDS011;64963;52.212;7.482;2022-12-18T14:14:43;10.48;;;5.55;;
76193;SDS011;64963;52.212;7.482;2022-12-18T14:17:09;10.30;;;4.80;;
76193;SDS011;64963;52.212;7.482;2022-12-18T14:19:35;11.57;;;5.43;;
76193;SDS011;64963;52.212;7.482;2022-12-18T14:22:00;12.23;;;5.33;;
76193;SDS011;64963;52.212;7.482;2022-12-18T14:24:26;10.23;;;5.13;;
76193;SDS011;64963;52.212;7.482;2022-12-18T14:26:51;9.23;;;4.57;;
76193;SDS011;64963;52.212;7.482;2022-12-18T14:31:44;11.80;;;4.90;;
76193;SDS011;64963;52.212;7.482;2022-12-18T14:34:16;9.47;;;5.07;;
76193;SDS011;64963;52.212;7.482;2022-12-18T14:36:41;11.43;;;5.20;;
76193;SDS011;64963;52.212;7.482;2022-12-18T14:39:17;9.95;;;5.07;;
76193;SDS011;64963;52.212;7.482;2022-12-18T14:41:42;10.80;;;5.10;;
76193;SDS011;64963;52.212;7.482;2022-12-18T14:44:07;11.40;;;5.40;;
76193;SDS011;64963;52.212;7.482;2022-12-18T14:46:36;12.90;;;6.13;;
76193;SDS011;64963;52.212;7.482;2022-12-18T14:52:22;10.57;;;5.50;;
76193;SDS011;64963;52.212;7.482;2022-12-18T14:54:45;10.95;;;4.88;;
76193;SDS011;64963;52.212;7.482;2022-12-18T14:57:21;10.02;;;5.05;;
76193;SDS011;64963;52.212;7.482;2022-12-18T14:59:46;13.45;;;5.45;;
76193;SDS011;64963;52.212;7.482;2022-12-18T15:02:18;8.17;;;3.93;;
76193;SDS011;64963;52.212;7.482;2022-12-18T15:04:44;12.13;;;5.80;;
76193;SDS011;64963;52.212;7.482;2022-12-18T15:09:39;9.17;;;4.53;;
76193;SDS011;64963;52.212;7.482;2022-12-18T15:12:04;8.85;;;3.88;;
76193;SDS011;64963;52.212;7.482;2022-12-18T15:16:55;10.02;;;5.03;;
76193;SDS011;64963;52.212;7.482;2022-12-18T15:19:21;9.43;;;4.63;;
76193;SDS011;64963;52.212;7.482;2022-12-18T15:21:47;7.75;;;3.95;;
76193;SDS011;64963;52.212;7.482;2022-12-18T15:24:20;9.23;;;4.10;;
76193;SDS011;64963;52.212;7.482;2022-12-18T15:26:47;10.65;;;4.93;;
76193;SDS011;64963;52.212;7.482;2022-12-18T15:29:19;10.37;;;4.70;;
76193;SDS011;64963;52.212;7.482;2022-12-18T15:31:45;8.70;;;3.58;;
76193;SDS011;64963;52.212;7.482;2022-12-18T15:34:22;8.05;;;4.20;;
76193;SDS011;64963;52.212;7.482;2022-12-18T15:36:47;8.27;;;4.13;;
76193;SDS011;64963;52.212;7.482;2022-12-18T15:39:13;7.57;;;3.73;;
76193;SDS011;64963;52.212;7.482;2022-12-18T15:41:38;8.57;;;4.10;;
76193;SDS011;64963;52.212;7.482;2022-12-18T15:44:15;10.73;;;4.77;;
76193;SDS011;64963;52.212;7.482;2022-12-18T15:46:45;8.43;;;4.00;;
76193;SDS011;64963;52.212;7.482;2022-12-18T15:49:10;7.60;;;4.13;;
76193;SDS011;64963;52.212;7.482;2022-12-18T15:51:35;10.53;;;4.43;;
76193;SDS011;64963;52.212;7.482;2022-12-18T15:54:02;8.80;;;4.15;;
76193;SDS011;64963;52.212;7.482;2022-12-18T15:56:28;10.63;;;4.40;;
76193;SDS011;64963;52.212;7.482;2022-12-18T15:58:53;10.85;;;4.60;;